Time;durP1;ratioP1;P1;durP2;ratioP2;P2;SDS_P1;SDS_P2;PMS_P1;PMS_P2;Temp;Humidity;BMP_temperature;BMP_pressure;BME280_temperature;BME280_humidity;BME280_pressure;Samples;Min_cycle;Max_cycle;Signal;HPM_P1;HPM_P2
2023/08/10 00:01:02;;;;;;;4.18;2.53;;;;;;;;;;5062779;28;20020;-69
2023/08/10 00:03:29;;;;;;;2.28;1.90;;;;;;;;;;5055155;28;20039;-71
2023/08/10 00:05:55;;;;;;;2.75;2.30;;;;;;;;;;5060694;28;20120;-69
2023/08/10 00:08:23;;;;;;;3.17;2.03;;;;;;;;;;5048839;28;20036;-69
2023/08/10 00:10:50;;;;;;;2.38;1.90;;;;;;;;;;5058406;28;20537;-69
2023/08/10 00:13:17;;;;;;;3.13;1.90;;;;;;;;;;5054425;28;20117;-69
2023/08/10 00:15:43;;;;;;;3.22;2.05;;;;;;;;;;5062767;28;20312;-69
2023/08/10 00:18:09;;;;;;;2.10;1.90;;;;;;;;;;5065808;28;20519;-69
2023/08/10 00:20:36;;;;;;;2.30;2.10;;;;;;;;;;5060301;28;20028;-69
2023/08/10 00:23:02;;;;;;;2.55;2.35;;;;;;;;;;5060819;28;20033;-69
2023/08/10 00:25:28;;;;;;;5.45;2.13;;;;;;;;;;5054715;28;20132;-69
2023/08/10 00:27:55;;;;;;;1.92;1.80;;;;;;;;;;5056327;28;20040;-70
2023/08/10 00:30:21;;;;;;;3.05;2.08;;;;;;;;;;5055763;28;20084;-69
2023/08/10 00:32:48;;;;;;;2.88;1.80;;;;;;;;;;5049228;28;20214;-69
2023/08/10 00:35:14;;;;;;;3.15;1.80;;;;;;;;;;5047738;28;20084;-69
2023/08/10 00:37:40;;;;;;;2.38;1.90;;;;;;;;;;5053554;28;20028;-69
2023/08/10 00:40:12;;;;;;;2.50;1.85;;;;;;;;;;5067899;28;20032;-69
2023/08/10 00:42:38;;;;;;;2.70;2.00;;;;;;;;;;5056418;28;20119;-69
2023/08/10 00:45:04;;;;;;;2.40;1.70;;;;;;;;;;5051245;28;20033;-69
2023/08/10 00:47:31;;;;;;;3.95;1.85;;;;;;;;;;5065655;28;20059;-69
2023/08/10 00:49:57;;;;;;;2.50;2.00;;;;;;;;;;5044801;28;20056;-69
2023/08/10 00:52:23;;;;;;;2.50;1.90;;;;;;;;;;5058031;28;20032;-69
2023/08/10 00:54:49;;;;;;;2.13;1.92;;;;;;;;;;5054134;28;20415;-69
2023/08/10 00:57:16;;;;;;;3.25;1.90;;;;;;;;;;5056255;28;21033;-69
2023/08/10 00:59:42;;;;;;;2.65;1.70;;;;;;;;;;5067374;28;20028;-69
2023/08/10 01:02:09;;;;;;;2.67;1.85;;;;;;;;;;5066564;28;20215;-68
2023/08/10 01:04:35;;;;;;;2.67;2.05;;;;;;;;;;5065729;28;20471;-69
2023/08/10 01:07:22;;;;;;;3.55;2.22;;;;;;;;;;5052320;28;20139;-69
2023/08/10 01:10:01;;;;;;;2.72;2.22;;;;;;;;;;5055366;28;20402;-69
2023/08/10 01:12:30;;;;;;;4.97;2.00;;;;;;;;;;5053520;28;20114;-69
2023/08/10 01:15:06;;;;;;;3.47;1.98;;;;;;;;;;5059167;28;20147;-69
2023/08/10 01:17:35;;;;;;;1.75;1.63;;;;;;;;;;5067193;28;20027;-69
2023/08/10 01:20:04;;;;;;;2.53;1.70;;;;;;;;;;5054487;28;20056;-70
2023/08/10 01:22:50;;;;;;;4.22;1.80;;;;;;;;;;5053963;28;20037;-70
2023/08/10 01:25:16;;;;;;;;;;;;;;;;;;5068013;28;20515;-69
2023/08/10 01:27:42;;;;;;;3.10;1.80;;;;;;;;;;5061934;28;19912;-69
2023/08/10 01:30:08;;;;;;;2.25;1.67;;;;;;;;;;5055200;28;20409;-69
2023/08/10 01:32:35;;;;;;;3.17;1.85;;;;;;;;;;5057016;28;20072;-69
2023/08/10 01:35:05;;;;;;;2.13;1.88;;;;;;;;;;5057136;28;20079;-69
2023/08/10 01:37:31;;;;;;;2.25;1.83;;;;;;;;;;5058061;28;20060;-69
2023/08/10 01:39:57;;;;;;;1.80;1.70;;;;;;;;;;5051207;28;20032;-69
2023/08/10 01:42:24;;;;;;;2.05;1.85;;;;;;;;;;5062748;28;20025;-69
2023/08/10 01:44:50;;;;;;;3.47;1.77;;;;;;;;;;5073236;28;20033;-69
2023/08/10 01:47:22;;;;;;;2.63;1.65;;;;;;;;;;5048927;28;20513;-69
2023/08/10 01:49:52;;;;;;;3.10;2.15;;;;;;;;;;5052407;28;20033;-69
2023/08/10 01:52:20;;;;;;;4.03;2.35;;;;;;;;;;5062056;28;20040;-69
2023/08/10 01:54:46;;;;;;;2.03;1.80;;;;;;;;;;5049322;28;20492;-69
2023/08/10 01:57:12;;;;;;;3.50;1.83;;;;;;;;;;5054102;28;20480;-70
2023/08/10 01:59:38;;;;;;;1.70;1.60;;;;;;;;;;5055679;28;20466;-69
2023/08/10 02:02:05;;;;;;;3.03;2.00;;;;;;;;;;5054354;28;20103;-71
2023/08/10 02:04:32;;;;;;;1.90;1.70;;;;;;;;;;5066126;28;20026;-69
2023/08/10 02:06:58;;;;;;;2.60;1.77;;;;;;;;;;5066216;28;20046;-69
2023/08/10 02:09:24;;;;;;;1.83;1.60;;;;;;;;;;5054722;28;20029;-69
2023/08/10 02:11:50;;;;;;;1.73;1.60;;;;;;;;;;5059788;28;20024;-69
2023/08/10 02:14:16;;;;;;;3.22;1.77;;;;;;;;;;5052504;28;20036;-69
2023/08/10 02:16:42;;;;;;;2.45;1.95;;;;;;;;;;5051074;28;20025;-69
2023/08/10 02:19:08;;;;;;;1.65;1.55;;;;;;;;;;5054941;28;20764;-69
2023/08/10 02:21:34;;;;;;;1.73;1.50;;;;;;;;;;5057466;28;20036;-69
2023/08/10 02:24:00;;;;;;;1.80;1.60;;;;;;;;;;5052308;28;20032;-69
2023/08/10 02:26:26;;;;;;;1.65;1.55;;;;;;;;;;5058653;28;20033;-70
2023/08/10 02:28:52;;;;;;;2.67;1.83;;;;;;;;;;5057400;28;20024;-70
2023/08/10 02:31:18;;;;;;;1.90;1.70;;;;;;;;;;5062474;28;20028;-70
2023/08/10 02:33:45;;;;;;;2.33;1.70;;;;;;;;;;5055372;28;20113;-70
2023/08/10 02:36:11;;;;;;;3.10;1.60;;;;;;;;;;5046788;28;21047;-70
2023/08/10 02:38:37;;;;;;;2.58;1.70;;;;;;;;;;5053481;28;20028;-73
2023/08/10 02:41:04;;;;;;;2.15;1.90;;;;;;;;;;5045247;28;20807;-72
2023/08/10 02:43:30;;;;;;;1.65;1.42;;;;;;;;;;5050606;28;20058;-72
2023/08/10 02:45:56;;;;;;;2.25;1.80;;;;;;;;;;5052348;28;20036;-72
2023/08/10 02:48:22;;;;;;;2.25;1.83;;;;;;;;;;5053731;28;20123;-73
2023/08/10 02:50:49;;;;;;;1.90;1.70;;;;;;;;;;5051101;28;20025;-73
2023/08/10 02:53:15;;;;;;;2.17;1.90;;;;;;;;;;5048890;28;20663;-73
2023/08/10 02:55:41;;;;;;;2.13;1.90;;;;;;;;;;5051918;28;20037;-72
2023/08/10 02:58:08;;;;;;;1.98;1.70;;;;;;;;;;5050996;28;20033;-72
2023/08/10 03:00:34;;;;;;;3.05;1.80;;;;;;;;;;5051559;28;20499;-72
2023/08/10 03:03:00;;;;;;;2.40;1.60;;;;;;;;;;5046710;28;20028;-73
2023/08/10 03:05:26;;;;;;;2.75;1.70;;;;;;;;;;5057128;28;20040;-72
2023/08/10 03:07:53;;;;;;;1.77;1.65;;;;;;;;;;5058400;28;20087;-72
2023/08/10 03:10:19;;;;;;;1.90;1.70;;;;;;;;;;5054698;28;20051;-72
2023/08/10 03:12:45;;;;;;;2.00;1.80;;;;;;;;;;5044747;28;20424;-73
2023/08/10 03:15:11;;;;;;;2.13;1.90;;;;;;;;;;5049246;28;20063;-73
2023/08/10 03:17:38;;;;;;;3.30;1.65;;;;;;;;;;5055025;28;20444;-73
2023/08/10 03:20:12;;;;;;;2.00;1.80;;;;;;;;;;5043727;28;20469;-73
2023/08/10 03:22:38;;;;;;;1.70;1.60;;;;;;;;;;5047828;28;20505;-73
2023/08/10 03:25:04;;;;;;;2.92;1.70;;;;;;;;;;5052737;28;20021;-73
2023/08/10 03:27:30;;;;;;;1.88;1.70;;;;;;;;;;5045754;28;20098;-73
2023/08/10 03:29:56;;;;;;;1.98;1.77;;;;;;;;;;5055781;28;20025;-73
2023/08/10 03:32:23;;;;;;;2.20;1.77;;;;;;;;;;5058441;28;20079;-73
2023/08/10 03:34:49;;;;;;;1.70;1.60;;;;;;;;;;5054509;28;20046;-73
2023/08/10 03:37:15;;;;;;;3.90;2.08;;;;;;;;;;5061947;28;20024;-73
2023/08/10 03:39:41;;;;;;;1.80;1.70;;;;;;;;;;5055537;28;20408;-73
2023/08/10 03:42:07;;;;;;;1.85;1.70;;;;;;;;;;5058658;28;20090;-73
2023/08/10 03:44:33;;;;;;;1.80;1.70;;;;;;;;;;5056178;28;20025;-73
2023/08/10 03:46:59;;;;;;;4.20;1.80;;;;;;;;;;5068864;28;20104;-73
2023/08/10 03:49:25;;;;;;;1.60;1.50;;;;;;;;;;5060655;28;20052;-72
2023/08/10 03:51:51;;;;;;;2.08;1.83;;;;;;;;;;5061360;28;20020;-73
2023/08/10 03:54:18;;;;;;;2.17;1.70;;;;;;;;;;5055904;28;20037;-73
2023/08/10 03:56:44;;;;;;;2.25;1.70;;;;;;;;;;5062292;28;20060;-73
2023/08/10 03:59:11;;;;;;;1.70;1.60;;;;;;;;;;5048490;28;20041;-73
2023/08/10 04:01:37;;;;;;;1.75;1.60;;;;;;;;;;5064953;28;20028;-73
2023/08/10 04:04:04;;;;;;;1.60;1.50;;;;;;;;;;5056302;28;20369;-72
2023/08/10 04:06:30;;;;;;;2.28;1.92;;;;;;;;;;5059440;28;20865;-73
2023/08/10 04:08:56;;;;;;;2.08;1.70;;;;;;;;;;5054667;28;20045;-73
2023/08/10 04:11:22;;;;;;;1.77;1.67;;;;;;;;;;5057244;28;20044;-73
2023/08/10 04:13:48;;;;;;;5.30;1.83;;;;;;;;;;5056067;28;20048;-73
2023/08/10 04:16:15;;;;;;;3.50;1.90;;;;;;;;;;5066487;28;20028;-73
2023/08/10 04:18:41;;;;;;;2.67;2.47;;;;;;;;;;5052860;28;20029;-73
2023/08/10 04:21:07;;;;;;;2.20;2.00;;;;;;;;;;5060010;28;20032;-73
2023/08/10 04:23:33;;;;;;;9.68;1.92;;;;;;;;;;5055544;28;20029;-73
2023/08/10 04:25:59;;;;;;;1.70;1.58;;;;;;;;;;5048932;28;20542;-73
2023/08/10 04:28:25;;;;;;;7.07;1.95;;;;;;;;;;5052299;28;20446;-73
2023/08/10 04:30:51;;;;;;;3.70;1.65;;;;;;;;;;5059697;28;20472;-73
2023/08/10 04:33:17;;;;;;;2.60;2.40;;;;;;;;;;5049915;28;20033;-73
2023/08/10 04:35:43;;;;;;;2.00;1.80;;;;;;;;;;5051399;28;20043;-73
2023/08/10 04:38:10;;;;;;;2.05;1.70;;;;;;;;;;5070085;28;20025;-73
2023/08/10 04:40:36;;;;;;;1.70;1.60;;;;;;;;;;5080481;28;20101;-73
2023/08/10 04:43:03;;;;;;;2.38;1.80;;;;;;;;;;5057152;28;20483;-73
2023/08/10 04:45:29;;;;;;;4.53;1.88;;;;;;;;;;5062858;28;20637;-72
2023/08/10 04:47:55;;;;;;;2.95;2.35;;;;;;;;;;5055573;28;20032;-73
2023/08/10 04:50:21;;;;;;;1.90;1.77;;;;;;;;;;5052430;28;20377;-73
2023/08/10 04:52:48;;;;;;;2.60;1.98;;;;;;;;;;5063647;28;20033;-73
2023/08/10 04:55:14;;;;;;;2.20;1.77;;;;;;;;;;5053252;28;20575;-73
2023/08/10 04:57:40;;;;;;;3.50;1.90;;;;;;;;;;5059607;28;20061;-72
2023/08/10 05:00:12;;;;;;;2.33;1.77;;;;;;;;;;5059603;28;20031;-73
2023/08/10 05:02:39;;;;;;;5.05;2.03;;;;;;;;;;5067041;28;20025;-73
2023/08/10 05:05:06;;;;;;;1.90;1.70;;;;;;;;;;5052686;28;20397;-73
2023/08/10 05:07:32;;;;;;;2.58;2.00;;;;;;;;;;5057062;28;20033;-73
2023/08/10 05:09:59;;;;;;;2.28;2.08;;;;;;;;;;5051919;28;20025;-73
2023/08/10 05:12:25;;;;;;;2.95;1.98;;;;;;;;;;5050447;28;20037;-73
2023/08/10 05:14:51;;;;;;;3.20;1.77;;;;;;;;;;5054519;28;20021;-72
2023/08/10 05:17:17;;;;;;;2.00;1.80;;;;;;;;;;5066235;28;20484;-73
2023/08/10 05:19:43;;;;;;;5.05;1.88;;;;;;;;;;5056914;28;20021;-72
2023/08/10 05:22:09;;;;;;;2.47;1.80;;;;;;;;;;5050470;28;20024;-73
2023/08/10 05:24:36;;;;;;;3.25;1.90;;;;;;;;;;5063852;28;20021;-73
2023/08/10 05:27:03;;;;;;;3.15;1.92;;;;;;;;;;5054145;28;20020;-73
2023/08/10 05:29:29;;;;;;;2.50;1.90;;;;;;;;;;5056971;28;20458;-73
2023/08/10 05:31:55;;;;;;;2.72;1.90;;;;;;;;;;5052200;28;20052;-73
2023/08/10 05:34:21;;;;;;;2.30;1.90;;;;;;;;;;5055831;28;20391;-72
2023/08/10 05:36:47;;;;;;;5.18;1.92;;;;;;;;;;5057152;28;20024;-73
2023/08/10 05:39:14;;;;;;;2.10;1.90;;;;;;;;;;5057859;28;20302;-73
2023/08/10 05:41:41;;;;;;;2.70;2.15;;;;;;;;;;5052903;28;20431;-73
2023/08/10 05:44:07;;;;;;;2.65;1.80;;;;;;;;;;5052753;28;20033;-73
2023/08/10 05:46:33;;;;;;;3.60;2.03;;;;;;;;;;5056938;28;20032;-73
2023/08/10 05:48:59;;;;;;;3.35;1.80;;;;;;;;;;5060791;28;20020;-70
2023/08/10 05:51:25;;;;;;;1.88;1.70;;;;;;;;;;5053351;28;20499;-70
2023/08/10 05:53:51;;;;;;;2.55;1.90;;;;;;;;;;5049854;28;20025;-69
2023/08/10 05:56:18;;;;;;;1.95;1.67;;;;;;;;;;5056483;28;20539;-70
2023/08/10 05:58:44;;;;;;;2.20;1.90;;;;;;;;;;5056319;28;20079;-70
2023/08/10 06:01:10;;;;;;;3.30;2.00;;;;;;;;;;5049688;28;20102;-70
2023/08/10 06:03:36;;;;;;;2.90;1.92;;;;;;;;;;5057930;28;20102;-70
2023/08/10 06:06:06;;;;;;;2.38;2.17;;;;;;;;;;5052070;28;20534;-70
2023/08/10 06:08:33;;;;;;;4.35;2.15;;;;;;;;;;5056109;28;20028;-70
2023/08/10 06:11:00;;;;;;;2.90;1.90;;;;;;;;;;5051817;28;20304;-70
2023/08/10 06:13:26;;;;;;;2.80;2.00;;;;;;;;;;5055064;28;20427;-70
2023/08/10 06:15:52;;;;;;;2.70;2.00;;;;;;;;;;5053297;28;20021;-70
2023/08/10 06:18:18;;;;;;;2.22;1.90;;;;;;;;;;5045078;28;20396;-70
2023/08/10 06:20:47;;;;;;;3.70;1.90;;;;;;;;;;5057740;28;20040;-70
2023/08/10 06:23:14;;;;;;;3.33;2.15;;;;;;;;;;5060520;28;20081;-70
2023/08/10 06:25:40;;;;;;;2.38;1.98;;;;;;;;;;5051477;28;20032;-70
2023/08/10 06:28:09;;;;;;;2.42;1.98;;;;;;;;;;5051602;28;20052;-70
2023/08/10 06:30:35;;;;;;;2.38;1.80;;;;;;;;;;5059122;28;20404;-70
2023/08/10 06:33:01;;;;;;;3.85;2.00;;;;;;;;;;5057702;28;20114;-70
2023/08/10 06:35:27;;;;;;;2.28;1.73;;;;;;;;;;5057106;28;20600;-70
2023/08/10 06:37:54;;;;;;;2.03;1.77;;;;;;;;;;5064935;28;20403;-71
2023/08/10 06:40:21;;;;;;;3.13;1.70;;;;;;;;;;5074434;28;20500;-70
2023/08/10 06:42:48;;;;;;;2.20;1.85;;;;;;;;;;5058209;28;20050;-70
2023/08/10 06:45:14;;;;;;;1.88;1.70;;;;;;;;;;5054872;28;20033;-71
2023/08/10 06:47:40;;;;;;;2.55;2.20;;;;;;;;;;5059905;28;20029;-70
2023/08/10 06:50:08;;;;;;;2.30;1.90;;;;;;;;;;5057593;28;20119;-70
2023/08/10 06:52:34;;;;;;;2.00;1.70;;;;;;;;;;5064415;28;20079;-69
2023/08/10 06:55:00;;;;;;;2.35;2.03;;;;;;;;;;5062465;28;20424;-69
2023/08/10 06:57:26;;;;;;;2.70;2.20;;;;;;;;;;5059801;28;20077;-68
2023/08/10 06:59:52;;;;;;;2.63;2.13;;;;;;;;;;5060734;28;20031;-69
2023/08/10 07:02:19;;;;;;;4.07;2.30;;;;;;;;;;5068821;28;20039;-70
2023/08/10 07:04:45;;;;;;;2.10;1.90;;;;;;;;;;5063830;28;20044;-69
2023/08/10 07:07:12;;;;;;;3.33;2.20;;;;;;;;;;5064159;28;20025;-69
2023/08/10 07:09:38;;;;;;;2.75;2.10;;;;;;;;;;5057922;28;20337;-70
2023/08/10 07:12:04;;;;;;;2.40;2.00;;;;;;;;;;5054357;28;20154;-70
2023/08/10 07:14:31;;;;;;;2.50;2.15;;;;;;;;;;5058083;28;20032;-70
2023/08/10 07:16:57;;;;;;;3.92;2.17;;;;;;;;;;5052736;28;20029;-69
2023/08/10 07:19:23;;;;;;;3.20;2.10;;;;;;;;;;5055138;28;20503;-69
2023/08/10 07:21:49;;;;;;;4.32;2.40;;;;;;;;;;5061699;28;20020;-69
2023/08/10 07:24:15;;;;;;;3.08;2.47;;;;;;;;;;5060745;28;20036;-69
2023/08/10 07:26:41;;;;;;;2.28;2.08;;;;;;;;;;5051966;28;20573;-69
2023/08/10 07:29:08;;;;;;;3.45;2.33;;;;;;;;;;5055822;28;20031;-70
2023/08/10 07:31:34;;;;;;;3.92;2.53;;;;;;;;;;5056224;28;20028;-70
2023/08/10 07:34:00;;;;;;;4.30;2.45;;;;;;;;;;5051284;28;20150;-70
2023/08/10 07:36:26;;;;;;;3.33;2.38;;;;;;;;;;5052037;28;20360;-70
2023/08/10 07:38:55;;;;;;;2.55;2.25;;;;;;;;;;5074761;28;20048;-70
2023/08/10 07:41:22;;;;;;;3.22;2.72;;;;;;;;;;5059843;28;20060;-70
2023/08/10 07:43:48;;;;;;;3.50;2.50;;;;;;;;;;5058981;28;20029;-69
2023/08/10 07:46:15;;;;;;;3.13;2.55;;;;;;;;;;5050998;28;20028;-69
2023/08/10 07:48:41;;;;;;;5.05;2.97;;;;;;;;;;5067782;28;20060;-70
2023/08/10 07:51:07;;;;;;;2.75;2.45;;;;;;;;;;5060704;28;20036;-69
2023/08/10 07:53:34;;;;;;;3.97;3.03;;;;;;;;;;5056622;28;20041;-70
2023/08/10 07:56:00;;;;;;;4.15;2.90;;;;;;;;;;5058076;28;20417;-70
2023/08/10 07:58:26;;;;;;;3.65;3.00;;;;;;;;;;5064541;28;20036;-69
2023/08/10 08:00:53;;;;;;;4.30;3.10;;;;;;;;;;5054549;28;20044;-70
2023/08/10 08:03:19;;;;;;;3.80;2.90;;;;;;;;;;5058918;28;20028;-70
2023/08/10 08:05:45;;;;;;;4.80;3.60;;;;;;;;;;5051374;28;20029;-70
2023/08/10 08:08:11;;;;;;;4.80;3.90;;;;;;;;;;5042131;28;20504;-70
2023/08/10 08:10:37;;;;;;;4.38;3.42;;;;;;;;;;5044938;28;20526;-70
2023/08/10 08:13:03;;;;;;;5.10;3.55;;;;;;;;;;5045220;28;20366;-70
2023/08/10 08:15:30;;;;;;;4.85;3.85;;;;;;;;;;5053363;28;20432;-70
2023/08/10 08:18:17;;;;;;;4.82;4.00;;;;;;;;;;5053996;28;20040;-70
2023/08/10 08:20:43;;;;;;;4.72;3.70;;;;;;;;;;5063016;28;20534;-70
2023/08/10 08:23:09;;;;;;;6.53;4.03;;;;;;;;;;5057240;28;20021;-70
2023/08/10 08:25:38;;;;;;;5.82;4.43;;;;;;;;;;5046215;28;20028;-70
2023/08/10 08:28:04;;;;;;;7.30;3.85;;;;;;;;;;5060816;28;20458;-70
2023/08/10 08:30:30;;;;;;;6.88;3.72;;;;;;;;;;5055523;28;20288;-68
2023/08/10 08:32:57;;;;;;;4.75;3.53;;;;;;;;;;5051522;28;20136;-70
2023/08/10 08:35:24;;;;;;;4.80;3.45;;;;;;;;;;5047541;28;20090;-70
2023/08/10 08:37:51;;;;;;;4.03;3.17;;;;;;;;;;5049912;28;20047;-70
2023/08/10 08:40:17;;;;;;;4.75;3.70;;;;;;;;;;5059570;28;20098;-69
2023/08/10 08:42:44;;;;;;;4.72;2.92;;;;;;;;;;5045208;28;20078;-68
2023/08/10 08:45:10;;;;;;;4.63;2.78;;;;;;;;;;5053422;28;20090;-69
2023/08/10 08:47:37;;;;;;;3.13;2.70;;;;;;;;;;5056141;28;20566;-66
2023/08/10 08:50:03;;;;;;;5.55;3.13;;;;;;;;;;5054202;28;20055;-65
2023/08/10 08:52:29;;;;;;;3.20;2.90;;;;;;;;;;5054678;28;20408;-65
2023/08/10 08:54:58;;;;;;;6.43;3.15;;;;;;;;;;5052796;28;20511;-66
2023/08/10 08:57:24;;;;;;;4.13;2.97;;;;;;;;;;5043761;28;20105;-65
2023/08/10 08:59:50;;;;;;;3.42;3.10;;;;;;;;;;5054166;28;20530;-63
2023/08/10 09:02:16;;;;;;;3.35;2.80;;;;;;;;;;5054584;28;20032;-65
2023/08/10 09:04:43;;;;;;;2.60;2.40;;;;;;;;;;5052758;28;20769;-65
2023/08/10 09:07:13;;;;;;;3.40;2.50;;;;;;;;;;5039958;28;20496;-67
2023/08/10 09:09:43;;;;;;;2.55;2.30;;;;;;;;;;5046319;28;20028;-68
2023/08/10 09:12:38;;;;;;;2.60;2.40;;;;;;;;;;5042774;28;20745;-69
2023/08/10 09:15:14;;;;;;;2.63;2.30;;;;;;;;;;5045217;28;20107;-68
2023/08/10 09:17:47;;;;;;;2.63;2.15;;;;;;;;;;5050061;28;20618;-67
2023/08/10 09:20:21;;;;;;;2.60;2.38;;;;;;;;;;5047303;28;20523;-66
2023/08/10 09:22:47;;;;;;;3.17;2.47;;;;;;;;;;5048473;28;20032;-67
2023/08/10 09:25:14;;;;;;;3.13;2.50;;;;;;;;;;5054066;28;20032;-68
2023/08/10 09:27:40;;;;;;;4.38;3.00;;;;;;;;;;5051382;28;20093;-66
2023/08/10 09:30:07;;;;;;;4.15;3.10;;;;;;;;;;5055850;28;20495;-69
2023/08/10 09:32:34;;;;;;;3.45;2.67;;;;;;;;;;5048151;28;21529;-68
2023/08/10 09:35:00;;;;;;;4.05;2.33;;;;;;;;;;5051837;28;20522;-63
2023/08/10 09:37:26;;;;;;;3.40;2.30;;;;;;;;;;5053485;28;20032;-66
2023/08/10 09:39:56;;;;;;;2.55;2.22;;;;;;;;;;5054795;28;20260;-67
2023/08/10 09:42:22;;;;;;;4.25;2.63;;;;;;;;;;5068381;28;20103;-69
2023/08/10 09:44:49;;;;;;;2.70;2.50;;;;;;;;;;5053350;28;20029;-68
2023/08/10 09:47:16;;;;;;;5.65;2.35;;;;;;;;;;5050910;28;20031;-68
2023/08/10 09:50:05;;;;;;;2.60;2.40;;;;;;;;;;5043810;28;20033;-64
2023/08/10 09:52:31;;;;;;;4.70;3.45;;;;;;;;;;5049371;28;21038;-66
2023/08/10 09:54:58;;;;;;;3.60;2.50;;;;;;;;;;5051800;28;20040;-68
2023/08/10 09:57:25;;;;;;;3.60;2.90;;;;;;;;;;5053124;28;20025;-71
2023/08/10 09:59:51;;;;;;;3.60;2.97;;;;;;;;;;5050970;28;20082;-66
2023/08/10 10:02:19;;;;;;;3.35;2.53;;;;;;;;;;5052456;28;20055;-67
2023/08/10 10:04:46;;;;;;;4.00;2.92;;;;;;;;;;5049609;28;20032;-66
2023/08/10 10:07:12;;;;;;;4.95;2.58;;;;;;;;;;5051840;28;20075;-68
2023/08/10 10:09:39;;;;;;;3.08;2.78;;;;;;;;;;5044027;28;20032;-68
2023/08/10 10:12:10;;;;;;;5.03;2.67;;;;;;;;;;5053298;28;20035;-69
2023/08/10 10:14:39;;;;;;;3.38;2.65;;;;;;;;;;5049900;28;20028;-68
2023/08/10 10:17:06;;;;;;;3.58;2.50;;;;;;;;;;5047719;28;20302;-66
2023/08/10 10:19:33;;;;;;;3.58;2.50;;;;;;;;;;5050230;28;20397;-69
2023/08/10 10:22:00;;;;;;;4.68;2.65;;;;;;;;;;5047831;28;20029;-67
2023/08/10 10:24:31;;;;;;;3.80;2.35;;;;;;;;;;5066230;28;20108;-67
2023/08/10 10:26:59;;;;;;;2.50;2.30;;;;;;;;;;5049495;28;20031;-65
2023/08/10 10:29:35;;;;;;;3.83;2.42;;;;;;;;;;5054027;28;20086;-66
2023/08/10 10:32:06;;;;;;;2.70;2.20;;;;;;;;;;5049640;28;20028;-67
2023/08/10 10:34:33;;;;;;;3.83;1.98;;;;;;;;;;5042894;28;20048;-67
2023/08/10 10:37:09;;;;;;;2.67;2.30;;;;;;;;;;5051284;28;20036;-68
2023/08/10 10:39:35;;;;;;;3.45;2.70;;;;;;;;;;5050995;28;20020;-67
2023/08/10 10:42:01;;;;;;;3.45;2.00;;;;;;;;;;5050768;28;20037;-71
2023/08/10 10:44:48;;;;;;;2.97;2.35;;;;;;;;;;5047723;28;20020;-67
2023/08/10 10:47:17;;;;;;;3.65;2.97;;;;;;;;;;5043843;28;20067;-69
2023/08/10 10:49:56;;;;;;;3.17;1.98;;;;;;;;;;5054310;28;20047;-68
2023/08/10 10:52:37;;;;;;;2.30;1.80;;;;;;;;;;5049625;28;20131;-69
2023/08/10 10:55:09;;;;;;;2.22;2.00;;;;;;;;;;5055351;28;20035;-67
2023/08/10 10:57:36;;;;;;;2.65;1.80;;;;;;;;;;5054189;28;20081;-70
2023/08/10 11:00:03;;;;;;;2.03;1.70;;;;;;;;;;5050027;28;20097;-69
2023/08/10 11:02:29;;;;;;;1.60;1.50;;;;;;;;;;5047872;28;20099;-67
2023/08/10 11:04:55;;;;;;;3.42;1.60;;;;;;;;;;5055886;28;20025;-67
2023/08/10 11:07:21;;;;;;;2.13;1.92;;;;;;;;;;5051431;28;20025;-68
2023/08/10 11:09:47;;;;;;;2.72;2.20;;;;;;;;;;5054568;28;20484;-67
2023/08/10 11:12:13;;;;;;;2.17;1.70;;;;;;;;;;5058064;28;20028;-67
2023/08/10 11:14:41;;;;;;;2.92;1.88;;;;;;;;;;5053918;28;20024;-64
2023/08/10 11:17:08;;;;;;;1.70;1.60;;;;;;;;;;5054979;28;20021;-68
2023/08/10 11:19:35;;;;;;;1.77;1.67;;;;;;;;;;5054754;28;20580;-68
2023/08/10 11:22:02;;;;;;;3.88;1.85;;;;;;;;;;5068700;28;20032;-65
2023/08/10 11:24:28;;;;;;;4.25;2.35;;;;;;;;;;5052064;28;20036;-69
2023/08/10 11:26:55;;;;;;;2.60;2.40;;;;;;;;;;5052859;28;20047;-69
2023/08/10 11:29:21;;;;;;;2.15;1.70;;;;;;;;;;5056595;28;20043;-67
2023/08/10 11:31:48;;;;;;;2.15;1.80;;;;;;;;;;5055005;28;20024;-71
2023/08/10 11:34:25;;;;;;;2.85;2.00;;;;;;;;;;5057907;28;20029;-71
2023/08/10 11:36:53;;;;;;;3.33;2.35;;;;;;;;;;5060988;28;20077;-70
2023/08/10 11:39:20;;;;;;;2.28;2.05;;;;;;;;;;5052036;28;20024;-70
2023/08/10 11:41:46;;;;;;;4.93;2.35;;;;;;;;;;5050384;28;20783;-69
2023/08/10 11:44:36;;;;;;;5.03;2.85;;;;;;;;;;5054710;28;20037;-70
2023/08/10 11:47:02;;;;;;;5.00;2.10;;;;;;;;;;5054177;28;20036;-69
2023/08/10 11:49:31;;;;;;;6.05;2.63;;;;;;;;;;5053613;28;20139;-70
2023/08/10 11:52:02;;;;;;;6.22;2.78;;;;;;;;;;5055376;28;20582;-69
2023/08/10 11:54:34;;;;;;;4.88;2.90;;;;;;;;;;5056853;28;20048;-69
2023/08/10 11:57:11;;;;;;;4.32;2.83;;;;;;;;;;5045262;28;20024;-69
2023/08/10 11:59:37;;;;;;;3.75;2.90;;;;;;;;;;5048540;28;20025;-69
2023/08/10 12:02:04;;;;;;;2.75;2.40;;;;;;;;;;5054593;28;20024;-68
2023/08/10 12:04:33;;;;;;;4.55;2.97;;;;;;;;;;5051846;28;20059;-67
2023/08/10 12:07:00;;;;;;;4.82;2.80;;;;;;;;;;5053210;28;20521;-70
2023/08/10 12:09:33;;;;;;;5.18;2.78;;;;;;;;;;5049879;28;20431;-69
2023/08/10 12:11:59;;;;;;;4.75;2.95;;;;;;;;;;5053029;28;20461;-69
2023/08/10 12:14:26;;;;;;;4.30;2.80;;;;;;;;;;5051766;28;20029;-69
2023/08/10 12:16:52;;;;;;;3.63;2.90;;;;;;;;;;5055210;28;20028;-69
2023/08/10 12:19:20;;;;;;;4.25;3.30;;;;;;;;;;5050102;28;20396;-68
2023/08/10 12:21:46;;;;;;;5.50;3.08;;;;;;;;;;5050056;28;20185;-69
2023/08/10 12:24:12;;;;;;;5.95;2.95;;;;;;;;;;5050276;28;20032;-68
2023/08/10 12:26:38;;;;;;;7.35;3.25;;;;;;;;;;5049940;28;20403;-67
2023/08/10 12:29:04;;;;;;;6.15;3.10;;;;;;;;;;5055556;28;20048;-66
2023/08/10 12:31:30;;;;;;;7.28;3.05;;;;;;;;;;5046937;28;20388;-66
2023/08/10 12:33:57;;;;;;;5.40;3.58;;;;;;;;;;5053656;28;20033;-67
2023/08/10 12:36:23;;;;;;;4.47;3.75;;;;;;;;;;5049016;28;20052;-68
2023/08/10 12:38:49;;;;;;;5.45;3.60;;;;;;;;;;5051215;28;20025;-68
2023/08/10 12:41:15;;;;;;;7.70;3.22;;;;;;;;;;5050808;28;20028;-71
2023/08/10 12:43:41;;;;;;;4.43;3.17;;;;;;;;;;5050940;28;20032;-69
2023/08/10 12:46:08;;;;;;;3.83;3.22;;;;;;;;;;5055347;28;20389;-68
2023/08/10 12:48:34;;;;;;;5.88;3.45;;;;;;;;;;5048054;28;20063;-69
2023/08/10 12:51:00;;;;;;;6.00;3.20;;;;;;;;;;5050083;28;20032;-70
2023/08/10 12:53:26;;;;;;;4.50;3.10;;;;;;;;;;5050973;28;20086;-69
2023/08/10 12:55:53;;;;;;;3.75;3.17;;;;;;;;;;5053613;28;20489;-67
2023/08/10 12:58:19;;;;;;;5.38;3.05;;;;;;;;;;5053215;28;20048;-67
2023/08/10 13:00:45;;;;;;;6.57;3.00;;;;;;;;;;5049793;28;20462;-67
2023/08/10 13:03:12;;;;;;;5.53;3.20;;;;;;;;;;5050137;28;20087;-69
2023/08/10 13:05:38;;;;;;;3.58;3.10;;;;;;;;;;5049316;28;20669;-70
2023/08/10 13:08:06;;;;;;;4.15;3.22;;;;;;;;;;5050865;28;20036;-69
2023/08/10 13:10:33;;;;;;;5.35;3.28;;;;;;;;;;5047842;28;20064;-69
2023/08/10 13:12:59;;;;;;;4.13;2.65;;;;;;;;;;5050273;28;20982;-72
2023/08/10 13:15:25;;;;;;;7.45;3.25;;;;;;;;;;5048932;28;20029;-70
2023/08/10 13:17:51;;;;;;;6.22;3.22;;;;;;;;;;5051007;28;20112;-69
2023/08/10 13:20:18;;;;;;;8.20;3.38;;;;;;;;;;5050854;28;20490;-69
2023/08/10 13:22:44;;;;;;;4.10;3.25;;;;;;;;;;5050691;28;20028;-68
2023/08/10 13:25:10;;;;;;;6.07;3.38;;;;;;;;;;5049500;28;20462;-70
2023/08/10 13:27:36;;;;;;;6.60;3.40;;;;;;;;;;5048027;28;20127;-67
2023/08/10 13:30:03;;;;;;;6.68;3.55;;;;;;;;;;5051356;28;20483;-69
2023/08/10 13:32:29;;;;;;;6.00;3.10;;;;;;;;;;5048768;28;20045;-67
2023/08/10 13:34:55;;;;;;;8.48;3.88;;;;;;;;;;5050036;28;20055;-69
2023/08/10 13:37:21;;;;;;;5.80;3.45;;;;;;;;;;5050938;28;20154;-69
2023/08/10 13:39:48;;;;;;;4.82;3.30;;;;;;;;;;5026570;28;20027;-69
2023/08/10 13:42:14;;;;;;;6.65;3.28;;;;;;;;;;5050401;28;20973;-70
2023/08/10 13:44:40;;;;;;;6.63;3.47;;;;;;;;;;5043475;28;20028;-67
2023/08/10 13:47:06;;;;;;;7.00;3.33;;;;;;;;;;5045185;28;20036;-68
2023/08/10 13:49:34;;;;;;;5.13;3.97;;;;;;;;;;5047719;28;20362;-68
2023/08/10 13:52:01;;;;;;;6.25;3.63;;;;;;;;;;5047151;28;20033;-68
2023/08/10 13:54:27;;;;;;;6.30;3.70;;;;;;;;;;5042658;28;20438;-68
2023/08/10 13:56:56;;;;;;;5.32;3.50;;;;;;;;;;5044514;28;20049;-70
2023/08/10 13:59:22;;;;;;;6.88;4.38;;;;;;;;;;5050658;28;20396;-68
2023/08/10 14:01:48;;;;;;;5.32;3.80;;;;;;;;;;5050732;28;20032;-67
2023/08/10 14:04:14;;;;;;;7.28;3.63;;;;;;;;;;5046680;28;20745;-68
2023/08/10 14:06:40;;;;;;;7.13;4.13;;;;;;;;;;5050798;28;20035;-67
2023/08/10 14:09:10;;;;;;;7.30;4.45;;;;;;;;;;5054422;28;20044;-68
2023/08/10 14:11:37;;;;;;;11.73;4.82;;;;;;;;;;5057260;28;21010;-68
2023/08/10 14:14:03;;;;;;;7.43;4.03;;;;;;;;;;5052709;28;20522;-69
2023/08/10 14:16:29;;;;;;;6.75;3.50;;;;;;;;;;5050305;28;20033;-68
2023/08/10 14:18:56;;;;;;;6.45;4.15;;;;;;;;;;5052636;28;20032;-67
2023/08/10 14:21:22;;;;;;;9.10;4.18;;;;;;;;;;5049336;28;20195;-70
2023/08/10 14:23:48;;;;;;;10.52;4.50;;;;;;;;;;5052085;28;20036;-69
2023/08/10 14:26:14;;;;;;;6.78;3.75;;;;;;;;;;5056041;28;20036;-68
2023/08/10 14:28:40;;;;;;;8.00;4.40;;;;;;;;;;5049032;28;20364;-69
2023/08/10 14:31:06;;;;;;;10.98;5.25;;;;;;;;;;5052841;28;20037;-69
2023/08/10 14:33:32;;;;;;;8.25;3.88;;;;;;;;;;5049905;28;20029;-69
2023/08/10 14:35:59;;;;;;;9.00;4.30;;;;;;;;;;5055090;28;20079;-68
2023/08/10 14:38:25;;;;;;;10.30;4.10;;;;;;;;;;5054145;28;20028;-69
2023/08/10 14:40:51;;;;;;;9.40;4.22;;;;;;;;;;5057992;28;20028;-68
2023/08/10 14:43:18;;;;;;;10.38;5.10;;;;;;;;;;5061094;28;20028;-67